AirNav   Pilot Hours Calculator
 
 1238 users online  

35TA Texas Health Presbyterian Hospital Plano Heliport
Plano, Texas, USA

GOING TO PLANO?


FAA INFORMATION EFFECTIVE 25 MARCH 2021

Location

FAA Identifier: 35TA
Lat/Long: 33-02-36.7400N 096-50-14.8500W
33-02.612333N 096-50.247500W
33.0435389,-96.8374583
(estimated)
Elevation: 669 ft. / 204 m (estimated)
Variation: 06E (1990)
From city: 3 miles N of PLANO, TX
Time zone: UTC -5 (UTC -6 during Standard Time)
Zip code: 75093

Heliport Operations

Heliport use: Private use, MEDICAL.
Activation date: 01/1992
Control tower: no
ARTCC: FORT WORTH CENTER
FSS: FORT WORTH FLIGHT SERVICE STATION
Attendance: UNATNDD
Wind indicator: lighted
Segmented circle: no
Lights: SS-SR
Beacon: white-green-yellow (heliport)
Operates sunset to sunrise.

Heliport Communications

WX AWOS-3 at ADS (4 nm S): PHONE 972-386-4855
WX ASOS at DAL (12 nm S): PHONE 214-353-1551
WX ASOS at DFW (13 nm SW): PHONE 972-615-2608
WX ASOS at TKI (15 nm NE): 119.925 (972-548-8525)
WX AWOS-3 at 49T (16 nm S): 135.425 (214-670-1243)

Nearby radio navigation aids

VOR radial/distance  VOR name  Freq  Var
CVEr014/9.8COWBOY VOR/DME116.2006E
TTTr038/14.6MAVERICK VOR/DME113.1006E
FUZr056/19.5RANGER VORTAC115.7006E

 
NDB name  Hdg/Dist  Freq  Var  ID
MESQUITE309/20.924803EPQF .--. --.- ..-.
TRAVIS294/34.226006EAVZ .- ...- --..

Heliport Services

Runway Information

Helipad H1

Dimensions: 40 x 40 ft. / 12 x 12 m
Surface: concrete
Runway edge lights: PERI
Latitude: 33-02.612333N
Longitude: 096-50.247500W
Elevation: 669.0 ft.
Traffic pattern: leftleft

Heliport Ownership and Management from official FAA records

Ownership: Privately-owned
Owner: TEXAS HLTH PRESBYTERIAN HOSP PLANO
6200 W. PARKER ROAD
PLANO, TX 75093
Phone 972-981-8000
Manager: RODNEY DILLON
6200 W. PARKER ROAD
PLANO, TX 75093
Phone (972) 981-8162

Additional Remarks

E111-1 OBSTN LGTS ARE INSTALLED ON BLDGS; PROPOSED OVERHEAD PLINES ARE MKD; AND PERIMETER & DIRECTIONAL LIGHTING ARE INSTALLED.
FOR CD CTC REGIONAL APCH AT 972-615-2799.

Instrument Procedures

There are no published instrument procedures at 35TA.

Some nearby airports with instrument procedures:

KADS - Addison Airport (4 nm S)
KDAL - Dallas Love Field Airport (12 nm S)
KDFW - Dallas-Fort Worth International Airport (13 nm SW)
KTKI - McKinney NTL Airport (15 nm NE)
KDTO - Denton Enterprise Airport (21 nm NW)
 
Loc | Ops | Rwys | IFR | FBO | Links
Com | Nav | Svcs | Stats | Notes

City of Fort Worth
 
Area around 35TA (Texas Health Presbyterian Hospital Plano Heliport)
 
Road maps at: MapQuest Bing Google
 
Aerial photo
No photo
 
Sectional chart

 
Airport distance calculator
Flying to Texas Health Presbyterian Hospital Plano Heliport? Find the distance to fly.

From to 35TA

Sunrise and sunset
Times for 17-Apr-2021
 Local
(UTC-5)
 Zulu
(UTC)
Morning civil twilight06:3111:31
Sunrise06:5611:56
Sunset19:5800:58
Evening civil twilight20:2301:23

Current date and time
Zulu (UTC)  17-Apr-2021 14:18:04
Local (UTC-5)  17-Apr-2021 09:18:04
 
METAR
KADS 
5nm S 
171352Z 32011G17KT 13SM BKN021 09/04 A3014
KDAL 
12nm S 
171353Z 35014KT 10SM SCT024 SCT130 BKN200 09/04 A3011 RMK AO2 SLP194 T00940039
KDFW 
12nm SW 
171353Z 34015G21KT 10SM FEW020 SCT150 BKN250 09/05 A3010 RMK AO2 SLP191 T00940050
KTKI 
15nm NE 
171353Z 33010KT 10SM CLR 08/04 A3012 RMK AO2 SLP208 T00830044
TAF
KDAL 
12nm S 
171120Z 1712/1812 35017KT P6SM OVC022 FM171500 35016KT P6SM SCT035 BKN100 FM180100 36007KT P6SM SCT090 BKN250
KDFW 
12nm SW 
171120Z 1712/1818 35017KT P6SM OVC022 FM171500 35016KT P6SM SCT035 BKN100 FM180100 36007KT P6SM SCT090 BKN250
NOTAMs
Click for the latest NOTAMs
NOTAMs are issued by the DoD/FAA and will open in a separate window not controlled by AirNav.

 

 
 

Would you like to see your business listed on this page?

 If your business provides an interesting product or service to pilots, flight crews, aircraft, or users of the Texas Health Presbyterian Hospital Plano Heliport, you should consider listing it here.  To start the listing process, click on the button below
 
Add a business
 

Other Pages about Texas Health Presbyterian Hospital Plano Heliport

Update a link
 
Copyright © AirNav, LLC. All rights reserved. Privacy Policy  Contact